Date,TemperatureHighF,TemperatureAvgF,TemperatureLowF,DewpointHighF,DewpointAvgF,DewpointLowF,HumidityHigh,HumidityAvg,HumidityLow,PressureMaxIn,PressureMinIn,WindSpeedMaxMPH,WindSpeedAvgMPH,GustSpeedMaxMPH,PrecipitationSumIn
2013-1-1,48.4,45.4,41.7,46.4,39.1,29.6,93,79,61,30.12,29.96,1,0,4,0.25
2013-1-2,49.8,45.1,40.3,46.4,38.1,30.9,94,77,58,30.19,29.93,7,1,11,0.15
2013-1-3,43.5,38.1,27.7,30.9,28.8,24.3,88,69,58,30.28,30.15,6,0,6,0.00
2013-1-4,51.6,36.0,25.0,29.0,23.5,19.9,90,64,35,30.33,30.21,14,1,14,0.00
2013-1-5,51.8,37.8,24.4,29.4,24.0,19.4,82,59,35,30.39,30.22,0,0,0,0.00
2013-1-6,55.9,43.8,36.5,39.3,33.9,28.3,84,69,49,30.25,30.06,8,0,8,0.03
2013-1-7,53.2,38.8,30.4,33.2,28.0,25.2,85,67,44,30.43,30.21,7,1,10,0.00
2013-1-8,55.4,41.4,27.5,39.0,33.0,23.9,88,73,52,30.46,30.37,0,0,0,0.00
2013-1-9,63.3,49.8,36.7,50.9,42.9,33.2,89,78,62,30.46,30.38,0,0,0,0.00
2013-1-10,62.8,51.8,44.4,47.9,39.6,34.1,93,67,38,30.53,30.41,5,0,5,0.00
2013-1-11,50.0,44.7,41.7,42.9,41.3,37.8,93,88,68,30.41,30.19,7,0,7,0.07
2013-1-12,65.3,53.9,44.8,58.8,51.0,42.9,95,90,79,30.19,30.11,3,0,3,0.00
2013-1-13,73.0,60.3,51.6,63.5,56.3,49.7,96,87,68,30.15,30.06,4,0,4,0.00
2013-1-14,64.0,60.9,55.6,62.0,59.1,53.9,96,94,92,30.19,30.09,8,0,8,0.75
2013-1-15,55.0,43.9,40.6,53.6,42.5,39.3,96,95,93,30.24,30.09,17,1,17,0.50
2013-1-16,49.1,44.1,39.4,47.7,42.9,38.3,96,95,93,30.10,29.97,6,0,6,0.65
2013-1-17,49.1,42.4,32.7,48.0,41.2,31.7,97,95,93,30.19,29.91,11,2,57,2.36
2013-1-18,47.5,34.8,28.2,33.0,29.2,26.0,96,82,49,30.52,30.17,6,0,8,0.11
2013-1-19,55.9,36.8,24.6,36.5,28.9,22.9,93,75,45,30.49,30.15,0,0,0,0.11
2013-1-20,64.0,43.6,29.3,39.5,30.7,26.1,89,64,37,30.16,30.02,0,0,0,0.00
2013-1-21,61.9,41.6,28.6,36.9,26.8,16.3,88,60,34,30.10,29.90,0,0,0,0.00
2013-1-22,37.2,29.3,27.1,16.7,5.1,2.6,44,35,33,30.27,30.00,0,0,0,0.00
2013-1-23,0.0,0.0,0.0,2.6,2.6,2.6,0,0,100,30.35,30.04,0,0,0,0.00
2013-1-24,0.0,0.0,0.0,2.6,2.6,2.6,0,0,100,30.49,29.97,0,0,0,0.00
2013-1-25,72.1,17.3,0.0,42.2,12.6,2.6,84,39,23,30.50,30.11,7,0,7,0.00
2013-1-26,39.9,31.2,23.7,34.2,27.0,20.4,89,84,76,30.39,30.10,4,0,4,0.63
2013-1-27,44.8,34.6,24.6,29.8,25.6,19.6,86,70,54,30.57,30.38,6,0,6,0.00
2013-1-28,49.6,41.8,34.3,40.8,34.7,27.1,90,76,62,30.47,30.24,5,0,7,0.00
2013-1-29,71.4,55.3,41.7,56.8,49.0,39.0,93,81,60,30.25,30.06,4,0,7,0.00
2013-1-30,70.5,64.8,57.0,64.0,59.7,54.4,93,84,69,30.06,29.44,18,3,18,0.85
2013-1-31,56.7,42.1,32.0,54.1,28.8,20.3,91,61,36,30.01,29.49,12,1,12,0.05
2013-2-1,38.8,32.2,24.6,27.9,13.0,3.8,72,47,25,30.37,29.88,12,2,17,2.16
2013-2-2,44.2,32.5,19.6,31.2,15.5,7.7,78,51,33,30.38,30.03,7,0,7,3.60
2013-2-3,52.5,39.4,30.9,31.7,27.3,20.9,89,64,41,30.03,29.86,12,0,12,4.32
2013-2-4,50.5,37.9,25.9,28.6,23.4,19.5,79,57,38,30.15,30.00,6,0,6,4.32
2013-2-5,60.6,44.9,33.8,36.1,31.0,25.9,77,60,37,30.00,29.91,57,0,57,0.72
2013-2-6,60.1,43.6,29.8,37.3,27.4,23.3,89,58,27,30.27,29.99,10,1,10,2.88
2013-2-7,43.5,38.5,35.8,35.7,31.5,24.1,93,77,56,30.33,30.05,8,1,8,1.00
2013-2-8,58.5,43.8,35.2,47.4,35.2,25.8,94,74,41,30.10,29.86,12,3,12,0.15
2013-2-9,54.0,40.0,28.4,26.1,21.7,15.8,76,51,24,30.35,30.09,12,1,12,2.88
2013-2-10,54.9,41.4,27.3,38.1,24.9,20.4,81,56,29,30.47,30.19,9,1,9,0.15
2013-2-11,55.8,48.4,41.7,53.6,45.5,38.1,95,90,81,30.19,29.96,3,0,4,0.06
2013-2-12,60.1,49.9,41.2,48.2,33.2,25.4,95,56,28,30.12,29.94,10,1,10,0.72
2013-2-13,50.2,44.8,35.4,46.2,40.4,31.4,91,85,63,29.98,29.66,8,0,8,0.28
2013-2-14,54.3,41.1,29.8,33.9,31.0,26.7,89,69,45,30.07,29.88,9,0,9,2.16
2013-2-15,62.4,44.9,29.5,40.2,32.2,26.5,90,65,34,30.11,29.94,17,1,17,0.72
2013-2-16,42.3,36.8,28.6,32.4,26.9,13.3,86,68,44,30.00,29.85,12,2,12,4.32
2013-2-17,39.4,30.1,23.5,15.5,10.0,6.1,62,44,28,30.26,29.97,16,3,16,2.88
2013-2-18,55.2,36.7,19.6,24.8,19.5,12.4,76,52,30,30.38,30.20,9,1,10,1.89
2013-2-19,48.0,39.8,35.2,42.6,32.2,22.9,90,75,54,30.22,29.88,57,0,57,0.22
2013-2-20,55.2,40.7,26.2,22.8,16.6,10.3,72,41,18,30.15,30.01,10,1,10,2.52
2013-2-21,55.8,41.7,25.5,23.7,16.3,10.7,64,38,21,30.27,30.11,7,1,7,2.52
2013-2-22,43.7,36.3,34.2,34.4,31.6,23.2,91,83,45,30.33,30.14,5,0,5,0.46
2013-2-23,48.2,39.9,34.3,42.5,37.1,32.4,94,90,80,30.16,29.84,6,0,6,0.25
2013-2-24,61.3,49.2,39.6,42.9,33.3,21.9,94,61,27,30.06,29.83,9,2,9,1.26
2013-2-25,44.8,38.9,34.2,25.1,23.3,21.4,64,54,44,30.23,30.06,7,1,7,1.89
2013-2-26,39.4,36.1,32.2,37.8,32.3,23.3,94,87,59,30.15,29.61,13,1,13,1.17
2013-2-27,58.8,46.0,37.0,41.8,37.5,35.3,94,75,45,29.81,29.66,10,0,10,0.00
2013-2-28,50.9,41.8,33.3,37.0,28.3,24.5,82,60,40,29.90,29.73,9,1,10,0.00
2013-3-1,46.2,41.1,36.5,30.1,27.6,25.0,72,59,49,29.93,29.87,7,1,9,0.00
2013-3-2,49.1,39.6,33.8,28.7,23.5,18.2,61,53,42,29.95,29.83,12,2,12,0.00
2013-3-3,45.0,35.2,28.8,21.6,17.4,13.6,59,48,36,30.01,29.89,12,4,12,0.00
2013-3-4,54.9,37.8,24.6,22.3,16.0,12.7,62,43,23,30.13,29.99,10,1,10,0.00
2013-3-5,50.2,42.8,36.5,40.6,32.9,21.6,93,69,46,30.07,29.61,8,0,8,0.35
2013-3-6,46.9,39.6,34.3,39.0,28.5,23.2,93,66,43,30.11,29.61,24,5,24,0.12
2013-3-7,53.2,40.6,31.3,29.7,26.3,22.5,76,58,39,30.28,30.10,16,4,16,0.00
2013-3-8,56.8,40.9,26.4,27.8,23.4,20.6,81,53,29,30.33,30.21,14,3,14,0.00
2013-3-9,64.4,44.8,27.7,33.0,27.7,22.3,80,54,28,30.36,30.24,7,0,7,0.00
2013-3-10,69.6,50.6,33.6,39.4,33.1,28.0,80,55,30,30.32,30.20,9,0,12,0.00
2013-3-11,68.5,54.9,41.2,52.3,39.8,23.9,82,57,46,30.23,29.90,13,2,13,0.03
2013-3-12,69.4,57.4,45.7,56.0,46.2,30.1,94,69,36,30.00,29.77,12,3,12,0.70
2013-3-13,58.8,44.3,33.8,33.0,26.0,16.2,81,51,29,30.18,30.00,15,3,15,0.00
2013-3-14,54.9,39.3,27.7,21.4,16.8,14.4,61,41,25,30.27,30.14,14,3,14,0.00
2013-3-15,66.2,46.6,29.3,35.4,27.6,17.6,70,49,31,30.20,29.91,8,0,8,0.00
2013-3-16,81.1,61.5,44.2,52.5,44.2,33.3,75,56,32,29.91,29.69,14,0,14,0.00
2013-3-17,57.0,50.8,39.6,50.0,43.9,36.4,90,77,61,30.18,29.87,12,2,12,0.00
2013-3-18,41.5,39.1,37.2,38.3,36.6,35.2,94,91,86,30.18,29.87,7,1,7,0.33
2013-3-19,66.6,48.6,35.4,44.1,30.8,13.0,94,60,20,30.06,29.85,11,2,11,0.00
2013-3-20,61.7,48.0,38.5,23.3,16.6,9.8,39,29,20,30.13,29.79,10,1,10,0.00
2013-3-21,47.5,37.7,30.0,26.6,15.0,8.9,55,40,25,30.00,29.80,13,4,13,0.00
2013-3-22,54.0,37.3,22.8,21.3,15.2,10.0,63,42,24,30.09,29.97,10,2,10,0.00
2013-3-23,59.5,46.2,37.0,30.4,26.2,20.6,61,47,31,30.07,29.91,8,0,8,0.00
2013-3-24,44.2,39.4,36.1,37.0,34.2,28.7,92,82,60,29.95,29.58,11,1,11,0.76
2013-3-25,49.6,39.7,33.4,37.4,28.6,21.6,92,67,40,29.85,29.57,13,1,13,0.04
2013-3-26,48.4,39.8,31.3,28.1,25.0,22.8,73,56,41,30.17,29.85,14,3,14,0.00
2013-3-27,51.4,38.9,28.2,26.1,22.3,19.4,78,54,33,30.27,30.16,17,3,17,0.00
2013-3-28,57.0,41.1,26.8,27.0,22.5,19.0,75,50,28,30.30,30.20,10,2,10,0.00
2013-3-29,63.7,46.0,28.2,31.2,25.7,21.8,77,49,25,30.35,30.18,10,0,10,0.00
2013-3-30,69.1,52.8,36.9,37.5,32.5,29.1,75,49,26,30.25,30.09,10,0,10,0.00
2013-3-31,69.4,55.7,49.1,56.9,48.8,37.7,91,78,59,30.09,29.83,7,0,7,0.67
2013-4-1,73.9,58.2,46.2,51.2,44.3,34.3,94,64,31,30.01,29.85,10,1,10,0.02
2013-4-2,62.6,49.7,35.1,34.8,27.1,18.4,81,46,21,30.18,30.01,10,1,10,0.00
2013-4-3,63.5,49.2,35.8,25.7,20.2,16.9,49,33,21,30.31,30.15,9,1,9,0.00
2013-4-4,47.7,40.4,35.2,33.7,25.6,14.6,92,60,29,30.35,29.99,13,2,13,0.60
2013-4-5,67.1,49.3,35.2,46.8,37.8,32.5,94,69,31,30.06,29.92,9,2,9,0.05
2013-4-6,69.6,53.0,36.5,37.5,33.8,31.3,82,52,29,30.27,30.06,7,1,7,0.00
2013-4-7,75.6,57.9,40.8,47.5,40.4,32.0,76,54,33,30.27,30.11,11,1,11,0.00
2013-4-8,82.6,65.0,50.7,57.6,50.5,42.2,87,62,38,30.18,30.06,8,0,8,0.00
2013-4-9,88.0,69.6,53.6,59.3,53.4,47.9,84,59,33,30.22,30.09,7,0,7,0.00
2013-4-10,89.8,72.3,57.6,62.4,56.5,52.4,83,60,35,30.13,29.98,9,0,9,0.00
2013-4-11,85.3,71.3,57.6,64.3,58.9,52.8,87,67,43,30.01,29.79,3,0,3,0.00
2013-4-12,85.6,71.1,58.8,66.3,57.2,39.4,94,65,36,29.84,29.64,0,0,0,1.45
2013-4-13,77.9,61.7,46.0,44.9,39.4,34.4,75,46,25,30.05,29.84,0,0,0,0.00
2013-4-14,82.9,63.8,45.0,49.7,41.7,37.7,79,49,22,30.13,30.03,0,0,0,0.00
2013-4-15,67.6,60.6,55.2,58.0,54.5,50.1,92,81,66,30.23,30.04,0,0,0,0.26
2013-4-16,82.8,67.1,54.3,63.9,57.5,51.7,92,73,47,30.33,30.20,0,0,0,0.00
2013-4-17,84.9,69.8,57.7,63.7,58.3,54.2,89,69,44,30.25,30.14,57,0,57,0.00
2013-4-18,83.1,71.8,63.1,64.2,59.7,56.0,89,68,43,30.20,30.03,0,0,0,0.00
2013-4-19,77.9,67.9,56.8,67.2,62.2,49.9,92,82,69,30.03,29.75,0,0,0,0.50
2013-4-20,65.8,53.7,0.0,49.4,33.8,28.3,77,47,29,30.29,29.91,0,0,0,0.00
2013-4-21,64.0,51.8,43.2,38.4,34.6,30.0,69,53,37,30.50,30.28,0,0,0,0.00
2013-4-22,66.4,52.1,38.5,37.6,32.8,26.6,82,51,25,30.46,30.27,0,0,0,0.00
2013-4-23,72.7,57.9,47.3,52.1,44.9,37.1,81,63,47,30.30,30.12,0,0,0,0.02
2013-4-24,77.9,62.5,48.6,59.0,52.7,45.5,91,72,50,30.15,30.00,0,0,0,0.00
2013-4-25,72.7,58.8,48.0,55.6,38.2,29.4,80,49,21,30.31,30.05,57,0,57,0.00
2013-4-26,74.5,57.9,41.2,42.2,37.2,34.0,77,50,25,30.45,30.30,0,0,0,0.00
2013-4-27,72.3,60.8,54.7,52.4,47.5,42.2,79,62,46,30.38,30.28,0,0,0,0.00
2013-4-28,57.4,55.5,53.4,54.0,52.2,50.1,94,88,78,30.28,30.07,0,0,0,1.25
2013-4-29,71.6,60.8,54.3,62.2,56.4,52.0,95,86,68,30.08,29.99,0,0,0,0.33
2013-4-30,73.2,61.9,55.6,59.6,55.9,52.1,94,81,61,30.22,30.03,0,0,0,0.00
2013-5-1,67.8,59.7,54.3,57.6,54.4,51.4,91,83,69,30.34,30.21,0,0,0,0.00
2013-5-2,64.2,58.6,54.7,55.3,52.5,49.1,89,80,72,30.36,30.28,0,0,0,0.00
2013-5-3,64.6,55.8,49.3,52.0,49.0,42.7,92,79,60,30.29,30.18,0,0,0,0.00
2013-5-4,65.3,54.6,48.4,50.2,45.4,41.0,87,72,51,30.22,30.09,6,0,6,0.00
2013-5-5,55.0,52.7,49.6,53.3,47.6,43.4,94,83,70,30.11,29.96,12,2,12,0.07
2013-5-6,68.9,59.6,54.5,62.5,56.9,53.0,95,91,79,29.99,29.85,15,1,15,1.17
2013-5-7,74.7,60.5,53.4,60.5,54.1,50.0,95,82,48,29.98,29.88,7,0,7,0.05
2013-5-8,72.1,60.4,52.2,60.7,55.1,49.8,93,84,66,30.04,29.95,5,0,5,0.10
2013-5-9,82.8,65.5,50.2,61.7,55.7,48.8,95,74,44,30.10,30.02,8,0,8,0.00
2013-5-10,86.2,70.4,55.4,64.9,59.0,52.5,91,69,44,30.11,29.97,10,0,10,0.00
2013-5-11,82.9,71.2,62.1,63.8,61.0,58.8,91,72,49,29.99,29.83,6,0,6,0.50
2013-5-12,73.0,62.5,54.0,59.7,46.9,33.2,93,61,32,30.07,29.87,10,1,10,0.03
2013-5-13,70.0,56.4,42.3,42.3,34.9,29.6,80,47,27,30.20,30.06,6,0,6,0.00
2013-5-14,74.8,58.0,40.5,46.1,40.0,31.9,81,53,32,30.28,30.08,9,0,9,0.00
2013-5-15,90.7,70.6,52.5,65.8,55.6,42.9,78,61,40,30.09,29.94,4,0,4,0.00
2013-5-16,87.1,72.6,59.2,63.5,59.8,55.6,89,66,39,30.04,29.96,2,0,2,0.00
2013-5-17,90.7,73.6,58.8,64.0,60.0,55.6,90,65,38,30.12,30.03,7,0,7,0.06
2013-5-18,76.8,69.0,64.9,67.7,63.3,60.2,88,82,70,30.20,30.11,5,0,5,0.10
2013-5-19,79.2,69.7,64.6,70.3,64.8,61.0,91,85,71,30.16,30.08,6,0,6,0.05
2013-5-20,83.3,71.6,64.8,72.6,66.1,61.7,93,84,59,30.15,30.05,4,0,4,0.25
2013-5-21,89.4,75.4,64.4,73.5,68.2,62.2,95,80,52,30.09,29.97,5,0,5,0.02
2013-5-22,88.9,75.2,66.2,71.2,66.5,62.5,92,76,53,30.06,29.93,8,1,8,0.25
2013-5-23,79.5,69.7,62.6,69.3,64.4,58.9,94,84,65,30.01,29.85,6,0,6,0.35
2013-5-24,70.5,63.3,54.9,60.9,48.6,34.3,95,63,31,30.23,29.89,11,2,11,0.00
2013-5-25,76.8,61.0,42.8,47.1,40.0,35.7,84,49,29,30.32,30.16,6,1,6,0.00
2013-5-26,77.2,63.4,53.8,51.4,46.7,37.5,74,56,36,30.31,30.19,5,0,5,0.00
2013-5-27,84.0,68.3,53.2,59.6,53.9,48.8,86,63,40,30.31,30.17,6,0,6,0.00
2013-5-28,88.5,73.6,62.2,67.1,62.2,55.1,89,69,47,30.26,30.16,8,0,8,0.00
2013-5-29,89.2,74.7,62.8,68.1,62.5,58.4,87,68,45,30.27,30.19,7,0,7,0.00
2013-5-30,88.5,74.7,62.4,68.1,62.8,59.1,90,69,42,30.31,30.21,6,0,6,0.00
2013-5-31,89.2,76.3,64.4,70.1,64.9,60.2,90,69,47,30.26,30.14,7,0,7,0.00
2013-6-1,90.7,77.7,67.3,69.1,65.1,61.9,91,68,42,30.16,30.04,8,0,8,0.00
2013-6-2,86.7,74.4,68.4,72.5,66.5,62.8,93,77,57,30.08,29.95,8,0,8,0.40
2013-6-3,87.6,73.1,66.7,72.6,67.7,64.0,94,84,58,30.01,29.88,9,0,9,0.30
2013-6-4,76.3,69.1,63.7,65.1,62.8,60.1,94,81,67,30.14,29.99,6,0,6,0.02
2013-6-5,76.6,68.5,63.1,65.7,62.8,60.0,93,83,66,30.17,30.05,8,0,8,0.05
2013-6-6,76.3,70.0,64.8,72.5,67.6,62.1,95,92,86,30.06,29.85,9,1,9,2.55
2013-6-7,81.7,70.6,67.6,74.0,68.0,65.7,95,91,75,29.88,29.67,3,0,3,0.50
2013-6-8,85.3,73.5,63.1,68.6,66.2,61.4,96,80,54,30.13,29.87,4,0,4,0.42
2013-6-9,91.8,76.5,66.0,73.1,68.3,63.9,94,78,47,30.20,30.09,6,0,6,0.60
2013-6-10,86.9,74.0,66.7,74.5,69.3,64.0,93,86,64,30.13,29.91,8,0,8,0.35
2013-6-11,86.9,74.7,65.8,69.9,65.6,62.6,95,75,48,30.03,29.95,4,0,4,0.03
2013-6-12,93.4,78.3,63.9,76.6,69.3,60.7,91,75,56,30.03,29.92,3,0,3,0.00
2013-6-13,95.2,77.4,66.7,74.9,69.5,61.7,94,79,40,29.93,29.67,7,0,7,0.76
2013-6-14,82.8,70.5,58.3,64.3,57.1,53.9,92,65,41,30.07,29.81,7,1,7,0.00
2013-6-15,86.5,71.6,57.9,64.9,60.1,55.0,91,69,44,30.18,30.07,0,0,0,0.00
2013-6-16,89.8,76.1,64.0,70.8,65.3,59.6,87,70,50,30.16,30.04,4,0,4,0.00
2013-6-17,90.3,75.6,69.6,73.9,69.2,64.3,92,81,56,30.07,29.97,6,0,6,0.15
2013-6-18,85.8,73.3,67.8,74.1,69.2,65.8,94,87,66,30.01,29.84,4,0,4,0.29
2013-6-19,85.1,73.6,63.7,69.1,65.3,62.2,95,77,53,30.17,29.94,57,0,57,0.00
2013-6-20,82.8,72.7,64.9,67.7,64.5,62.3,93,77,57,30.29,30.16,0,0,0,0.00
2013-6-21,85.8,73.0,62.4,65.4,60.5,56.8,87,67,46,30.31,30.22,8,0,8,0.00
2013-6-22,84.9,73.0,62.8,69.9,64.3,56.9,90,75,58,30.28,30.15,4,0,4,0.00
2013-6-23,91.0,77.8,67.6,73.3,68.5,64.9,92,75,48,30.25,30.16,6,0,6,0.00
2013-6-24,92.5,78.3,69.4,74.9,70.4,66.8,93,78,53,30.24,30.13,3,0,3,0.00
2013-6-25,93.4,79.2,69.4,75.2,70.5,67.0,93,77,52,30.17,30.03,4,0,4,0.00
2013-6-26,92.1,75.5,67.1,80.3,69.4,64.7,94,82,55,30.08,29.94,8,0,8,0.50
2013-6-27,89.4,77.2,66.6,75.2,70.8,64.8,95,82,61,29.99,29.77,3,0,3,0.00
2013-6-28,93.9,78.1,69.1,75.9,70.9,67.2,94,80,54,29.81,29.65,8,0,8,0.37
2013-6-29,89.2,77.2,69.1,73.8,69.9,66.7,94,79,54,29.77,29.66,8,0,8,0.02
2013-6-30,89.1,76.1,69.6,74.4,69.9,66.8,93,82,59,29.90,29.74,8,0,8,0.22
2013-7-1,85.6,75.0,68.4,73.8,69.2,66.3,95,83,62,30.03,29.88,8,0,8,0.12
2013-7-2,81.5,74.0,71.2,73.9,69.9,68.2,93,87,74,30.20,30.02,10,1,10,0.20
2013-7-3,83.5,73.3,0.0,75.9,72.0,69.1,96,87,76,30.27,30.16,8,0,8,0.70
2013-7-4,91.6,77.6,72.3,74.9,71.8,68.3,95,84,55,30.29,30.20,18,0,18,0.36
2013-7-5,90.9,78.4,71.4,75.8,72.0,69.4,95,82,60,30.29,30.22,12,0,12,0.10
2013-7-6,90.1,77.8,70.0,73.8,71.0,68.2,95,81,55,30.29,30.15,7,0,7,0.32
2013-7-7,88.0,78.0,71.2,76.1,72.2,68.6,95,83,65,30.23,30.11,0,0,0,0.00
2013-7-8,89.8,80.7,70.3,74.3,71.0,68.2,95,74,53,30.23,30.14,0,0,0,0.20
2013-7-9,92.1,80.2,71.8,76.9,72.9,69.6,94,80,57,30.20,30.09,6,0,6,0.00
2013-7-10,91.6,78.9,70.2,75.6,71.3,67.3,93,79,59,30.14,29.98,5,0,5,0.05
2013-7-11,84.7,75.4,70.3,76.4,71.6,68.5,95,88,74,30.01,29.92,2,0,2,0.45
2013-7-12,81.1,73.7,68.2,70.0,67.3,64.2,95,81,66,30.08,29.93,6,0,6,0.35
2013-7-13,80.4,73.1,68.2,72.2,68.5,65.0,93,86,75,30.18,30.06,5,0,5,0.00
2013-7-14,88.7,78.3,71.4,73.9,70.7,68.5,95,79,56,30.33,30.18,10,1,10,0.06
2013-7-15,89.8,78.3,69.1,74.3,69.4,67.0,94,76,54,30.37,30.29,2,0,2,0.00
2013-7-16,93.7,78.5,68.5,75.6,70.6,66.4,93,78,50,30.33,30.25,3,0,3,0.00
2013-7-17,96.1,80.8,73.0,77.4,72.3,70.1,91,77,49,30.29,30.16,2,0,2,0.00
2013-7-18,96.1,81.0,71.2,78.1,73.1,68.8,92,78,51,30.21,30.09,0,0,0,0.00
2013-7-19,94.6,81.8,72.7,77.4,73.7,70.5,94,78,55,30.15,30.03,4,0,4,0.00
2013-7-20,91.2,77.9,72.3,77.6,72.1,68.4,92,83,58,30.07,29.96,0,0,0,0.12
2013-7-21,94.3,77.8,70.7,76.7,71.6,68.6,94,82,56,30.05,29.97,114,0,114,0.17
2013-7-22,90.7,78.3,71.2,76.4,71.7,69.1,94,82,59,30.01,29.88,4,0,4,0.00
2013-7-23,92.8,79.4,69.1,75.6,69.6,66.6,93,74,49,29.89,29.79,0,0,0,0.00
2013-7-24,93.9,80.0,68.5,72.1,68.2,65.2,91,69,47,29.93,29.80,0,0,0,0.00
2013-7-25,85.6,75.2,66.6,68.4,65.5,61.9,90,73,55,30.08,29.90,5,0,5,0.06
2013-7-26,88.9,76.4,67.3,67.8,65.4,63.6,89,71,48,30.16,30.06,4,0,4,0.00
2013-7-27,72.7,70.7,68.4,69.7,67.2,64.6,94,89,79,30.09,29.98,6,0,6,2.18
2013-7-28,88.2,75.0,68.4,74.3,69.5,66.6,95,84,58,30.05,29.96,1,0,1,0.35
2013-7-29,87.1,74.7,66.4,68.5,64.7,60.7,95,74,45,30.21,30.04,0,0,0,0.80
2013-7-30,88.0,74.4,64.0,67.8,63.3,58.8,84,70,47,30.28,30.18,0,0,0,0.00
2013-7-31,84.9,74.4,69.6,72.6,68.3,65.9,93,82,66,30.20,30.03,5,0,5,0.00
2013-8-1,89.2,76.4,70.0,74.9,70.3,67.9,94,82,58,30.04,29.92,0,0,0,0.00
2013-8-2,90.1,76.9,66.4,71.0,67.4,64.3,94,75,49,30.08,29.97,0,0,0,0.00
2013-8-3,92.5,78.3,68.9,76.8,70.2,65.7,92,78,54,30.07,29.97,0,0,0,0.00
2013-8-4,88.3,77.4,69.4,70.2,64.8,60.0,92,68,41,30.09,29.97,0,0,0,0.01
2013-8-5,87.6,74.9,65.8,69.2,64.2,58.2,80,70,52,30.13,30.03,2,0,2,0.00
2013-8-6,81.0,72.0,65.1,71.5,66.9,62.4,91,84,73,30.10,30.03,6,0,6,0.50
2013-8-7,88.5,76.1,69.1,73.2,68.8,66.0,92,79,54,30.14,30.06,5,0,5,0.00
2013-8-8,88.9,77.1,70.9,77.0,71.6,68.1,92,83,66,30.12,30.04,7,0,7,0.10
2013-8-9,94.1,78.7,71.2,77.8,72.4,69.3,94,82,55,30.10,30.03,7,0,7,0.50
2013-8-10,94.6,76.3,71.2,78.2,71.9,66.6,95,87,50,30.15,30.08,7,0,7,0.70
2013-8-11,92.1,78.9,70.3,76.9,72.6,68.8,96,83,58,30.16,30.07,0,0,0,0.00
2013-8-12,93.9,79.5,71.2,74.4,71.8,68.7,95,79,50,30.11,30.00,4,0,4,0.00
2013-8-13,90.5,75.4,70.3,76.9,71.1,66.0,94,87,61,30.01,29.85,10,0,10,1.00
2013-8-14,78.6,71.6,63.7,69.3,61.5,56.5,94,72,51,30.13,29.91,0,0,0,0.00
2013-8-15,77.5,66.7,58.6,59.2,56.4,53.0,91,71,47,30.22,30.12,0,0,0,0.00
2013-8-16,72.7,64.2,57.0,61.9,57.1,53.5,89,78,63,30.22,30.14,0,0,0,0.00
2013-8-17,66.6,62.6,59.9,62.9,59.9,56.2,95,91,86,30.25,30.17,4,0,4,0.80
2013-8-18,79.2,69.7,63.5,69.5,65.4,62.2,96,87,70,30.27,30.17,0,0,0,0.20
2013-8-19,76.6,69.6,65.5,71.4,66.6,63.7,94,90,80,30.24,30.13,4,0,4,0.88
2013-8-20,82.6,72.5,64.8,72.5,68.1,63.3,96,87,68,30.24,30.15,0,0,0,0.00
2013-8-21,86.2,75.2,69.3,77.3,71.4,67.0,95,88,69,30.27,30.15,0,0,0,0.00
2013-8-22,90.0,77.4,69.6,74.0,70.4,66.5,96,81,57,30.19,30.05,0,0,0,0.25
2013-8-23,88.0,74.5,64.9,73.4,68.0,61.9,94,82,57,30.14,30.00,0,0,0,0.35
2013-8-24,82.9,70.4,61.7,62.8,59.7,56.0,92,72,41,30.34,30.14,0,0,0,0.00
2013-8-25,81.7,68.7,59.4,64.9,59.3,56.6,93,74,49,30.43,30.32,0,0,0,0.00
2013-8-26,85.6,69.3,56.8,65.3,60.0,54.2,92,74,46,30.37,30.15,0,0,0,0.00
2013-8-27,90.7,75.2,62.8,74.0,66.8,59.6,91,77,54,30.17,30.03,0,0,0,0.00
2013-8-28,88.3,77.1,68.7,76.2,71.3,66.3,93,83,67,30.06,29.94,0,0,0,0.00
2013-8-29,90.7,79.1,70.5,74.5,70.9,68.4,93,77,57,30.06,29.92,0,0,0,0.00
2013-8-30,88.9,76.1,68.2,70.5,67.5,64.2,93,76,50,30.11,29.98,0,0,0,0.00
2013-8-31,92.3,75.0,66.7,75.5,68.4,63.7,93,81,56,30.01,29.91,0,0,0,0.28
2013-9-1,90.0,73.2,66.9,77.5,69.6,65.1,95,89,66,29.96,29.85,0,0,0,2.25
2013-9-2,88.9,75.5,67.3,76.1,70.4,65.8,96,85,63,29.96,29.85,0,0,0,0.00
2013-9-3,90.5,77.4,68.7,74.0,68.6,62.4,94,76,53,30.02,29.85,0,0,0,0.00
2013-9-4,86.2,72.7,62.6,67.6,62.6,59.1,89,72,47,30.14,30.02,0,0,0,0.00
2013-9-5,87.6,72.9,62.8,65.5,61.3,-24.2,93,71,34,30.16,30.09,0,0,0,0.00
2013-9-6,82.2,70.7,62.6,61.8,59.1,56.1,87,68,48,30.24,30.14,0,0,0,0.00
2013-9-7,85.3,69.8,59.4,67.9,61.8,55.5,89,77,54,30.18,30.02,0,0,0,0.00
2013-9-8,89.4,74.3,63.3,70.0,65.5,61.3,93,76,49,30.05,29.97,0,0,0,0.00
2013-9-9,88.0,75.3,66.7,72.7,67.5,64.2,93,78,55,30.19,30.04,0,0,0,0.00
2013-9-10,90.1,76.3,66.7,73.5,68.6,64.3,93,78,53,30.28,30.18,0,0,0,0.00
2013-9-11,91.8,77.0,66.9,74.5,69.2,64.2,91,78,55,30.24,30.11,0,0,0,0.00
2013-9-12,91.9,77.1,68.2,74.4,69.7,66.1,93,79,55,30.11,29.88,0,0,0,0.00
2013-9-13,85.8,73.3,64.0,67.2,59.3,50.2,90,64,38,29.98,29.83,0,0,0,0.00
2013-9-14,76.3,64.0,55.2,55.2,51.8,47.6,82,66,45,30.17,29.97,0,0,0,0.00
2013-9-15,81.1,65.3,52.5,61.9,56.8,49.7,90,76,49,30.28,30.15,0,0,0,0.00
2013-9-16,85.1,71.4,60.4,67.9,61.6,57.3,92,73,47,30.24,30.10,0,0,0,0.00
2013-9-17,75.0,65.7,59.4,59.1,54.6,51.0,87,69,48,30.36,30.23,0,0,0,0.00
2013-9-18,75.0,63.3,54.9,55.8,53.0,49.3,84,70,50,30.36,30.21,0,0,0,0.00
2013-9-19,78.6,67.0,58.3,62.9,58.1,52.1,84,74,56,30.23,30.11,0,0,0,0.00
2013-9-20,84.4,71.0,64.2,69.4,65.0,60.8,93,82,58,30.13,29.98,0,0,0,0.25
2013-9-21,77.9,69.0,63.9,70.9,66.2,62.4,95,91,78,30.00,29.77,0,0,0,1.15
2013-9-22,77.5,66.4,57.7,62.4,57.4,54.1,95,75,48,29.96,29.78,0,0,0,0.00
2013-9-23,75.2,62.5,55.4,55.8,53.3,50.0,89,73,49,30.11,29.96,0,0,0,0.00
2013-9-24,80.1,64.9,56.5,61.6,56.9,53.0,89,77,53,30.13,29.98,0,0,0,0.00
2013-9-25,68.7,62.3,56.1,62.6,58.2,53.4,93,87,78,29.99,29.92,0,0,0,0.00
2013-9-26,74.5,64.3,56.8,61.5,56.6,51.1,95,78,51,30.09,29.93,0,0,0,0.00
2013-9-27,74.1,62.4,52.3,59.6,53.6,49.8,92,75,51,30.23,30.09,0,0,0,0.00
2013-9-28,72.3,60.3,52.9,57.6,52.5,50.0,93,77,55,30.31,30.22,0,0,0,0.00
2013-9-29,73.9,61.4,52.9,58.6,53.2,49.4,89,76,53,30.22,30.08,0,0,0,0.00
2013-9-30,76.8,62.1,51.6,59.5,53.2,48.9,92,75,46,30.14,30.03,0,0,0,0.00
2013-10-1,82.6,66.3,54.3,63.9,57.1,51.6,92,74,47,30.17,30.06,0,0,0,0.00
2013-10-2,84.0,67.8,56.3,64.8,58.7,53.7,92,75,46,30.19,30.09,0,0,0,0.00
2013-10-3,85.6,69.6,59.7,67.1,60.7,56.6,92,75,52,30.18,30.09,0,0,0,0.00
2013-10-4,63.7,61.7,59.5,59.4,58.1,56.6,90,88,86,30.15,30.13,0,0,0,0.00
2013-10-7,63.1,60.5,59.9,54.7,52.8,50.6,81,76,69,30.06,29.99,0,0,0,1.10
2013-10-8,67.8,59.3,53.2,50.8,47.6,45.1,75,66,51,30.26,30.06,0,0,0,0.00
2013-10-9,66.9,58.2,50.9,52.9,48.3,45.2,83,70,55,30.26,30.16,0,0,0,0.00
2013-10-10,69.4,61.1,54.0,61.1,54.6,47.1,88,79,72,30.16,30.00,0,0,0,0.00
2013-10-11,75.0,67.3,61.7,61.9,59.8,57.8,87,77,62,30.02,29.95,0,0,0,0.00
2013-10-12,73.2,65.6,57.4,62.8,59.9,54.5,91,82,66,30.14,30.00,0,0,0,0.00
2013-10-13,67.8,63.4,61.0,62.3,60.1,58.1,94,89,82,30.27,30.13,0,0,0,0.00
2013-10-14,68.0,61.8,58.5,60.5,57.9,55.1,94,87,74,30.29,30.21,0,0,0,0.00
2013-10-15,72.1,61.7,53.2,57.6,54.0,51.3,94,77,55,30.25,30.10,0,0,0,0.00
2013-10-16,76.1,64.1,55.0,62.2,56.9,51.5,90,78,60,30.12,29.98,0,0,0,0.00
2013-10-17,70.0,64.2,59.4,63.7,60.7,56.4,95,88,79,30.01,29.88,0,0,0,0.00
2013-10-18,68.7,60.1,50.9,63.1,52.6,48.3,95,78,51,30.09,29.93,0,0,0,0.00
2013-10-19,62.1,57.4,53.4,58.5,54.5,50.0,94,90,87,30.02,29.87,0,0,0,0.01
2013-10-20,63.3,52.3,43.5,52.6,41.7,36.5,95,69,41,30.14,29.96,0,0,0,0.00
2013-10-21,68.7,52.5,39.6,51.5,44.8,36.9,91,77,53,30.18,30.02,0,0,0,0.00
2013-10-22,68.9,59.2,53.8,57.4,53.0,48.7,92,81,58,30.03,29.83,0,0,0,0.00
2013-10-23,67.1,56.0,43.5,55.9,44.2,30.3,93,68,38,30.06,29.75,0,0,0,0.00
2013-10-24,58.8,46.0,33.6,36.9,33.0,29.3,86,62,42,30.20,30.04,0,0,0,0.00
2013-10-25,53.8,43.8,34.3,35.3,31.0,26.8,84,62,42,30.39,30.20,0,0,0,0.00
2013-10-26,56.8,42.9,28.6,36.4,30.9,24.9,87,65,41,30.37,30.09,0,0,0,0.00
2013-10-27,67.3,53.2,40.6,44.3,40.5,35.8,85,64,39,30.15,30.06,0,0,0,0.00
2013-10-28,70.0,55.5,45.3,54.8,48.5,42.0,90,78,56,30.29,30.14,0,0,0,0.00
2013-10-29,73.0,60.0,50.5,56.5,52.0,47.7,92,77,52,30.36,30.26,0,0,0,0.00
2013-10-30,75.4,62.7,54.1,60.0,54.9,50.7,90,77,55,30.31,30.17,0,0,0,0.00
2013-10-31,73.0,64.1,56.1,61.6,56.5,52.8,90,77,61,30.20,29.91,0,0,0,0.00
2013-11-1,68.5,64.2,55.9,65.5,60.1,53.9,95,87,78,29.92,29.70,0,0,0,0.00
2013-11-2,69.3,58.3,51.1,57.4,47.6,35.5,96,71,41,30.01,29.75,0,0,0,0.00
2013-11-3,61.0,48.5,37.2,42.7,35.8,33.5,90,64,39,30.38,30.01,0,0,0,0.00
2013-11-4,55.9,45.3,36.1,34.6,32.0,29.8,80,61,41,30.56,30.37,0,0,0,0.00
2013-11-5,57.7,46.7,34.7,47.6,37.0,27.8,89,69,54,30.58,30.44,0,0,0,0.00
2013-11-6,69.8,56.5,48.2,53.8,48.4,43.4,90,75,54,30.45,30.14,0,0,0,0.00
2013-11-7,63.9,52.9,43.0,55.6,44.6,32.1,93,75,46,30.16,29.99,0,0,0,0.00
2013-11-8,55.6,43.3,31.6,34.9,28.0,23.2,85,57,32,30.34,30.16,0,0,0,0.00
2013-11-9,60.6,43.5,29.5,34.2,29.8,25.8,87,62,33,30.39,30.20,0,0,0,0.00
2013-11-10,70.5,51.4,34.5,41.6,32.5,24.2,85,53,27,30.28,30.10,0,0,0,0.00
2013-11-11,60.4,45.0,31.6,32.4,27.9,24.5,78,53,31,30.37,30.16,0,0,0,0.00
2013-11-12,60.3,41.6,29.1,38.5,29.1,17.0,83,62,43,30.46,30.07,0,0,0,0.05
2013-11-13,46.2,33.2,24.6,20.6,18.1,16.6,74,55,33,30.55,30.45,57,0,57,0.00
2013-11-14,58.8,38.1,23.4,28.1,21.8,17.7,79,56,28,30.47,30.32,0,0,0,0.00
2013-11-15,61.5,45.6,28.8,46.4,32.5,21.0,85,62,35,30.36,30.21,0,0,0,0.00
2013-11-16,62.1,55.0,49.8,54.9,50.8,46.2,91,86,77,30.30,30.22,0,0,0,0.00
2013-11-17,68.2,60.2,55.2,61.3,56.9,52.8,95,89,75,30.24,29.90,0,0,0,0.10
2013-11-18,73.8,62.1,50.2,63.4,48.6,28.5,96,66,33,30.04,29.84,0,0,0,0.12
2013-11-19,56.5,47.0,39.6,29.1,26.3,23.9,55,45,30,30.31,30.03,0,0,0,0.00
2013-11-20,52.5,42.4,35.1,30.7,27.6,24.5,66,56,41,30.48,30.30,0,0,0,0.00
2013-11-21,57.7,48.2,41.9,43.1,37.6,29.6,74,67,57,30.52,30.40,0,0,0,0.00
2013-11-22,66.0,56.6,48.7,56.0,49.5,41.5,90,77,68,30.41,30.12,0,0,0,0.02
2013-11-23,60.6,52.8,38.8,55.0,38.4,16.9,94,62,31,30.23,30.09,0,0,0,0.02
2013-11-24,38.8,32.1,25.0,18.3,7.8,2.1,47,36,24,30.53,30.23,57,0,57,0.00
2013-11-25,42.4,31.6,20.3,16.1,10.5,4.8,60,42,28,30.56,30.39,0,0,0,0.00
2013-11-26,43.7,37.5,32.5,42.4,34.1,21.3,95,88,56,30.29,29.62,0,0,0,2.50
2013-11-27,45.0,37.6,27.3,43.6,29.1,12.8,95,72,53,30.20,29.56,0,0,0,0.34
2013-11-28,44.2,30.8,20.8,21.1,17.3,12.5,78,59,34,30.47,30.20,57,0,57,0.00
2013-11-29,51.4,35.4,23.2,27.6,22.3,18.6,84,61,36,30.62,30.45,0,0,0,0.00
2013-11-30,46.8,34.1,26.8,25.5,22.4,20.2,76,64,41,30.66,30.37,0,0,0,0.00
2013-12-1,56.1,37.2,23.9,33.2,26.8,20.0,86,68,41,30.38,30.04,0,0,0,0.00
2013-12-2,58.8,43.3,28.2,39.7,33.1,24.8,88,69,47,30.04,29.85,0,0,0,0.00
2013-12-3,60.4,48.7,35.4,49.5,42.1,31.6,88,78,66,30.00,29.88,0,0,0,0.00
2013-12-4,59.9,54.5,49.8,56.1,51.9,46.2,95,91,85,30.10,29.98,0,0,0,0.13
2013-12-5,65.1,61.6,57.4,62.9,60.0,56.0,96,95,91,30.13,30.03,0,0,0,0.25
2013-12-6,76.1,68.7,64.0,66.0,62.9,60.6,96,82,62,30.05,29.98,0,0,0,0.50
2013-12-7,66.7,50.7,43.0,62.1,44.3,35.3,94,79,60,30.46,30.02,0,0,0,0.46
2013-12-8,43.0,35.2,32.5,35.6,31.0,28.6,93,85,70,30.47,30.28,0,0,0,0.20
2013-12-9,42.8,38.2,33.3,40.9,36.4,31.5,94,93,92,30.28,30.07,0,0,0,0.45
2013-12-10,50.2,41.0,27.7,45.1,36.0,23.3,95,83,57,30.32,29.93,0,0,0,0.35
2013-12-11,48.6,33.9,23.0,29.2,25.1,20.5,90,72,44,30.45,30.29,0,0,0,0.00
2013-12-12,43.9,35.2,27.0,25.6,18.7,12.7,82,52,32,30.42,30.29,0,0,0,0.00
2013-12-13,49.6,34.9,23.0,28.8,21.5,16.4,79,60,36,30.38,30.26,0,0,0,0.00
2013-12-14,41.0,38.1,36.3,35.5,32.9,28.7,93,82,68,30.29,29.80,0,0,0,0.80
2013-12-15,49.3,39.9,29.8,41.1,32.9,25.0,94,77,51,30.10,29.75,0,0,0,0.06
2013-12-16,55.4,39.5,27.1,35.9,29.9,24.1,89,71,44,30.18,30.08,0,0,0,0.00
2013-12-17,61.9,44.7,31.3,39.2,33.3,27.8,89,67,42,30.13,29.89,0,0,0,0.00
2013-12-18,49.1,39.0,30.6,28.8,20.7,18.0,64,49,32,30.28,30.06,0,0,0,0.00
2013-12-19,62.2,40.0,27.1,31.0,24.7,19.5,79,58,29,30.32,30.21,0,0,0,0.00
2013-12-22,63.1,62.2,60.6,62.0,60.9,58.9,96,95,94,30.11,30.04,0,0,0,1.38
2013-12-23,63.0,56.2,41.7,61.8,52.7,34.0,96,88,72,30.20,30.01,0,0,0,1.48
2013-12-24,45.0,37.2,27.1,34.2,24.0,12.9,77,60,41,30.47,30.19,0,0,0,0.00
2013-12-25,39.9,29.0,21.0,15.9,12.9,11.4,68,52,34,30.55,30.40,0,0,0,0.00
2013-12-31,50.4,41.6,32.4,35.9,29.2,23.0,91,65,37,30.32,30.14,0,0,0,0.00